sensor_id;sensor_type;location;lat;lon;timestamp;P1;durP1;ratioP1;P2;durP2;ratioP2
63370;SDS011;49504;48.336;14.472;2023-02-22T00:00:12;3.20;;;1.40;;
63370;SDS011;49504;48.336;14.472;2023-02-22T00:03:37;3.55;;;1.27;;
63370;SDS011;49504;48.336;14.472;2023-02-22T00:07:00;3.08;;;1.20;;
63370;SDS011;49504;48.336;14.472;2023-02-22T00:10:23;3.28;;;1.27;;
63370;SDS011;49504;48.336;14.472;2023-02-22T00:14:09;3.30;;;1.30;;
63370;SDS011;49504;48.336;14.472;2023-02-22T00:17:32;2.55;;;1.00;;
63370;SDS011;49504;48.336;14.472;2023-02-22T00:20:54;3.13;;;1.15;;
63370;SDS011;49504;48.336;14.472;2023-02-22T00:24:17;3.08;;;1.23;;
63370;SDS011;49504;48.336;14.472;2023-02-22T00:27:39;2.67;;;1.00;;
63370;SDS011;49504;48.336;14.472;2023-02-22T00:33:32;3.15;;;1.30;;
63370;SDS011;49504;48.336;14.472;2023-02-22T00:36:56;2.90;;;1.17;;
63370;SDS011;49504;48.336;14.472;2023-02-22T00:40:20;3.08;;;1.20;;
63370;SDS011;49504;48.336;14.472;2023-02-22T00:43:46;2.88;;;1.20;;
63370;SDS011;49504;48.336;14.472;2023-02-22T00:47:09;2.80;;;1.20;;
63370;SDS011;49504;48.336;14.472;2023-02-22T00:50:33;2.92;;;1.20;;
63370;SDS011;49504;48.336;14.472;2023-02-22T00:53:56;2.88;;;1.05;;
63370;SDS011;49504;48.336;14.472;2023-02-22T00:57:18;2.70;;;1.10;;
63370;SDS011;49504;48.336;14.472;2023-02-22T01:00:41;2.78;;;1.13;;
63370;SDS011;49504;48.336;14.472;2023-02-22T01:04:05;3.78;;;1.40;;
63370;SDS011;49504;48.336;14.472;2023-02-22T01:07:30;2.70;;;1.10;;
63370;SDS011;49504;48.336;14.472;2023-02-22T01:10:53;2.65;;;1.05;;
63370;SDS011;49504;48.336;14.472;2023-02-22T01:14:15;3.15;;;1.17;;
63370;SDS011;49504;48.336;14.472;2023-02-22T01:17:37;2.50;;;1.00;;
63370;SDS011;49504;48.336;14.472;2023-02-22T01:21:00;2.70;;;1.05;;
63370;SDS011;49504;48.336;14.472;2023-02-22T01:24:25;2.63;;;1.08;;
63370;SDS011;49504;48.336;14.472;2023-02-22T01:27:49;2.45;;;0.90;;
63370;SDS011;49504;48.336;14.472;2023-02-22T01:31:12;3.30;;;1.10;;
63370;SDS011;49504;48.336;14.472;2023-02-22T01:34:37;2.58;;;1.02;;
63370;SDS011;49504;48.336;14.472;2023-02-22T01:37:59;2.45;;;1.10;;
63370;SDS011;49504;48.336;14.472;2023-02-22T01:41:22;3.00;;;1.20;;
63370;SDS011;49504;48.336;14.472;2023-02-22T01:44:43;2.65;;;1.00;;
63370;SDS011;49504;48.336;14.472;2023-02-22T01:48:11;3.10;;;1.08;;
63370;SDS011;49504;48.336;14.472;2023-02-22T01:51:39;2.90;;;1.20;;
63370;SDS011;49504;48.336;14.472;2023-02-22T01:55:05;2.70;;;1.15;;
63370;SDS011;49504;48.336;14.472;2023-02-22T01:58:29;2.88;;;1.10;;
63370;SDS011;49504;48.336;14.472;2023-02-22T02:01:54;3.53;;;1.10;;
63370;SDS011;49504;48.336;14.472;2023-02-22T02:05:18;2.75;;;0.98;;
63370;SDS011;49504;48.336;14.472;2023-02-22T02:08:43;3.03;;;1.00;;
63370;SDS011;49504;48.336;14.472;2023-02-22T02:12:17;2.25;;;0.82;;
63370;SDS011;49504;48.336;14.472;2023-02-22T02:16:49;2.70;;;0.95;;
63370;SDS011;49504;48.336;14.472;2023-02-22T02:20:15;2.55;;;0.93;;
63370;SDS011;49504;48.336;14.472;2023-02-22T02:23:52;2.60;;;1.13;;
63370;SDS011;49504;48.336;14.472;2023-02-22T02:27:56;2.58;;;0.98;;
63370;SDS011;49504;48.336;14.472;2023-02-22T02:32:04;1.85;;;0.70;;
63370;SDS011;49504;48.336;14.472;2023-02-22T02:35:47;2.53;;;0.95;;
63370;SDS011;49504;48.336;14.472;2023-02-22T02:39:18;2.45;;;0.93;;
63370;SDS011;49504;48.336;14.472;2023-02-22T02:42:49;2.53;;;1.13;;
63370;SDS011;49504;48.336;14.472;2023-02-22T02:46:21;2.75;;;1.02;;
63370;SDS011;49504;48.336;14.472;2023-02-22T02:49:50;3.15;;;1.05;;
63370;SDS011;49504;48.336;14.472;2023-02-22T02:53:21;2.55;;;1.00;;
63370;SDS011;49504;48.336;14.472;2023-02-22T02:56:47;2.40;;;0.88;;
63370;SDS011;49504;48.336;14.472;2023-02-22T03:00:10;2.20;;;0.80;;
63370;SDS011;49504;48.336;14.472;2023-02-22T03:03:44;2.60;;;0.90;;
63370;SDS011;49504;48.336;14.472;2023-02-22T03:07:37;2.42;;;1.00;;
63370;SDS011;49504;48.336;14.472;2023-02-22T03:11:12;2.45;;;0.90;;
63370;SDS011;49504;48.336;14.472;2023-02-22T03:15:21;1.98;;;0.77;;
63370;SDS011;49504;48.336;14.472;2023-02-22T03:19:30;2.70;;;1.00;;
63370;SDS011;49504;48.336;14.472;2023-02-22T03:22:59;2.47;;;0.88;;
63370;SDS011;49504;48.336;14.472;2023-02-22T03:26:29;2.25;;;0.90;;
63370;SDS011;49504;48.336;14.472;2023-02-22T03:29:59;2.15;;;0.80;;
63370;SDS011;49504;48.336;14.472;2023-02-22T03:36:38;2.85;;;1.08;;
63370;SDS011;49504;48.336;14.472;2023-02-22T03:40:08;2.72;;;1.10;;
63370;SDS011;49504;48.336;14.472;2023-02-22T03:43:41;2.20;;;0.73;;
63370;SDS011;49504;48.336;14.472;2023-02-22T03:47:10;2.60;;;0.90;;
63370;SDS011;49504;48.336;14.472;2023-02-22T03:50:38;1.60;;;0.70;;
63370;SDS011;49504;48.336;14.472;2023-02-22T03:54:03;2.47;;;0.88;;
63370;SDS011;49504;48.336;14.472;2023-02-22T03:57:31;1.90;;;0.60;;
63370;SDS011;49504;48.336;14.472;2023-02-22T04:00:59;2.60;;;0.98;;
63370;SDS011;49504;48.336;14.472;2023-02-22T04:04:21;2.45;;;1.05;;
63370;SDS011;49504;48.336;14.472;2023-02-22T04:07:45;2.40;;;0.90;;
63370;SDS011;49504;48.336;14.472;2023-02-22T04:11:11;2.63;;;0.77;;
63370;SDS011;49504;48.336;14.472;2023-02-22T04:14:35;2.55;;;0.88;;
63370;SDS011;49504;48.336;14.472;2023-02-22T04:17:58;2.38;;;0.90;;
63370;SDS011;49504;48.336;14.472;2023-02-22T04:25:04;2.63;;;0.80;;
63370;SDS011;49504;48.336;14.472;2023-02-22T04:28:29;2.50;;;0.93;;
63370;SDS011;49504;48.336;14.472;2023-02-22T04:33:16;2.15;;;0.77;;
63370;SDS011;49504;48.336;14.472;2023-02-22T04:36:38;2.95;;;1.00;;
63370;SDS011;49504;48.336;14.472;2023-02-22T04:40:02;2.65;;;1.05;;
63370;SDS011;49504;48.336;14.472;2023-02-22T04:43:28;2.67;;;1.00;;
63370;SDS011;49504;48.336;14.472;2023-02-22T04:46:59;2.60;;;0.93;;
63370;SDS011;49504;48.336;14.472;2023-02-22T04:50:31;3.03;;;1.20;;
63370;SDS011;49504;48.336;14.472;2023-02-22T04:53:59;2.70;;;0.93;;
63370;SDS011;49504;48.336;14.472;2023-02-22T04:57:26;4.15;;;1.00;;
63370;SDS011;49504;48.336;14.472;2023-02-22T05:00:52;3.17;;;1.25;;
63370;SDS011;49504;48.336;14.472;2023-02-22T05:04:15;2.97;;;1.08;;
63370;SDS011;49504;48.336;14.472;2023-02-22T05:07:39;2.30;;;0.90;;
63370;SDS011;49504;48.336;14.472;2023-02-22T05:11:05;2.60;;;0.80;;
63370;SDS011;49504;48.336;14.472;2023-02-22T05:14:27;2.35;;;0.90;;
63370;SDS011;49504;48.336;14.472;2023-02-22T05:17:50;3.80;;;1.17;;
63370;SDS011;49504;48.336;14.472;2023-02-22T05:21:15;2.85;;;1.02;;
63370;SDS011;49504;48.336;14.472;2023-02-22T05:24:40;2.60;;;0.90;;
63370;SDS011;49504;48.336;14.472;2023-02-22T05:28:41;2.17;;;0.68;;
63370;SDS011;49504;48.336;14.472;2023-02-22T05:32:03;3.15;;;1.00;;
63370;SDS011;49504;48.336;14.472;2023-02-22T05:35:29;2.75;;;0.90;;
63370;SDS011;49504;48.336;14.472;2023-02-22T05:38:52;2.40;;;0.90;;
63370;SDS011;49504;48.336;14.472;2023-02-22T05:42:18;2.38;;;0.90;;
63370;SDS011;49504;48.336;14.472;2023-02-22T05:45:42;2.47;;;1.00;;
63370;SDS011;49504;48.336;14.472;2023-02-22T05:49:05;2.42;;;0.98;;
63370;SDS011;49504;48.336;14.472;2023-02-22T05:54:17;3.97;;;1.02;;
63370;SDS011;49504;48.336;14.472;2023-02-22T05:59:50;3.10;;;1.15;;
63370;SDS011;49504;48.336;14.472;2023-02-22T06:03:14;3.65;;;1.23;;
63370;SDS011;49504;48.336;14.472;2023-02-22T06:06:37;2.80;;;1.05;;
63370;SDS011;49504;48.336;14.472;2023-02-22T06:09:59;3.15;;;0.95;;
63370;SDS011;49504;48.336;14.472;2023-02-22T06:13:23;3.60;;;1.35;;
63370;SDS011;49504;48.336;14.472;2023-02-22T06:20:38;2.90;;;1.10;;
63370;SDS011;49504;48.336;14.472;2023-02-22T06:24:12;2.70;;;1.02;;
63370;SDS011;49504;48.336;14.472;2023-02-22T06:27:34;2.65;;;1.00;;
63370;SDS011;49504;48.336;14.472;2023-02-22T06:30:55;3.30;;;1.10;;
63370;SDS011;49504;48.336;14.472;2023-02-22T06:34:18;2.55;;;0.98;;
63370;SDS011;49504;48.336;14.472;2023-02-22T06:39:37;3.05;;;1.00;;
63370;SDS011;49504;48.336;14.472;2023-02-22T06:42:59;3.05;;;1.30;;
63370;SDS011;49504;48.336;14.472;2023-02-22T06:49:05;3.30;;;1.10;;
63370;SDS011;49504;48.336;14.472;2023-02-22T06:52:27;2.65;;;0.90;;
63370;SDS011;49504;48.336;14.472;2023-02-22T06:55:48;3.60;;;0.98;;
63370;SDS011;49504;48.336;14.472;2023-02-22T06:59:12;2.33;;;0.98;;
63370;SDS011;49504;48.336;14.472;2023-02-22T07:02:33;3.05;;;0.95;;
63370;SDS011;49504;48.336;14.472;2023-02-22T07:05:56;2.65;;;0.77;;
63370;SDS011;49504;48.336;14.472;2023-02-22T07:09:17;3.00;;;1.10;;
63370;SDS011;49504;48.336;14.472;2023-02-22T07:12:38;2.70;;;1.00;;
63370;SDS011;49504;48.336;14.472;2023-02-22T07:15:59;3.17;;;0.82;;
63370;SDS011;49504;48.336;14.472;2023-02-22T07:19:21;3.50;;;1.05;;
63370;SDS011;49504;48.336;14.472;2023-02-22T07:22:43;2.97;;;0.93;;
63370;SDS011;49504;48.336;14.472;2023-02-22T07:26:04;2.42;;;0.82;;
63370;SDS011;49504;48.336;14.472;2023-02-22T07:29:25;2.55;;;0.82;;
63370;SDS011;49504;48.336;14.472;2023-02-22T07:32:46;2.83;;;0.80;;
63370;SDS011;49504;48.336;14.472;2023-02-22T07:36:08;2.30;;;0.70;;
63370;SDS011;49504;48.336;14.472;2023-02-22T07:39:31;2.42;;;0.90;;
63370;SDS011;49504;48.336;14.472;2023-02-22T07:42:53;2.58;;;0.80;;
63370;SDS011;49504;48.336;14.472;2023-02-22T07:46:16;2.33;;;0.80;;
63370;SDS011;49504;48.336;14.472;2023-02-22T07:49:37;4.13;;;0.85;;
63370;SDS011;49504;48.336;14.472;2023-02-22T07:52:59;2.72;;;0.85;;
63370;SDS011;49504;48.336;14.472;2023-02-22T07:56:23;2.63;;;0.90;;
63370;SDS011;49504;48.336;14.472;2023-02-22T07:59:44;1.85;;;0.70;;
63370;SDS011;49504;48.336;14.472;2023-02-22T08:03:06;2.95;;;0.88;;
63370;SDS011;49504;48.336;14.472;2023-02-22T08:06:29;2.08;;;0.70;;
63370;SDS011;49504;48.336;14.472;2023-02-22T08:09:50;2.63;;;0.90;;
63370;SDS011;49504;48.336;14.472;2023-02-22T08:13:13;1.98;;;0.70;;
63370;SDS011;49504;48.336;14.472;2023-02-22T08:16:34;2.50;;;0.80;;
63370;SDS011;49504;48.336;14.472;2023-02-22T08:19:56;3.10;;;0.98;;
63370;SDS011;49504;48.336;14.472;2023-02-22T10:35:44;4.40;;;0.90;;
63370;SDS011;49504;48.336;14.472;2023-02-22T10:39:11;3.25;;;0.80;;
63370;SDS011;49504;48.336;14.472;2023-02-22T10:42:40;2.28;;;0.80;;
63370;SDS011;49504;48.336;14.472;2023-02-22T10:46:01;2.40;;;0.82;;
63370;SDS011;49504;48.336;14.472;2023-02-22T10:49:25;2.17;;;0.80;;
63370;SDS011;49504;48.336;14.472;2023-02-22T10:52:55;2.65;;;0.90;;
63370;SDS011;49504;48.336;14.472;2023-02-22T10:56:17;2.80;;;1.10;;
63370;SDS011;49504;48.336;14.472;2023-02-22T10:59:40;2.80;;;0.98;;
63370;SDS011;49504;48.336;14.472;2023-02-22T11:03:02;2.50;;;0.90;;
63370;SDS011;49504;48.336;14.472;2023-02-22T11:10:02;2.80;;;1.00;;
63370;SDS011;49504;48.336;14.472;2023-02-22T11:13:29;2.53;;;1.00;;
63370;SDS011;49504;48.336;14.472;2023-02-22T11:16:53;2.23;;;1.00;;
63370;SDS011;49504;48.336;14.472;2023-02-22T11:20:17;1.88;;;0.70;;
63370;SDS011;49504;48.336;14.472;2023-02-22T11:23:40;2.55;;;0.90;;
63370;SDS011;49504;48.336;14.472;2023-02-22T11:27:05;2.40;;;0.80;;
63370;SDS011;49504;48.336;14.472;2023-02-22T11:30:27;2.40;;;0.90;;
63370;SDS011;49504;48.336;14.472;2023-02-22T11:33:51;2.50;;;1.17;;
63370;SDS011;49504;48.336;14.472;2023-02-22T11:40:43;2.22;;;0.85;;
63370;SDS011;49504;48.336;14.472;2023-02-22T11:44:12;2.72;;;0.90;;
63370;SDS011;49504;48.336;14.472;2023-02-22T11:47:51;2.40;;;0.70;;
63370;SDS011;49504;48.336;14.472;2023-02-22T11:51:16;3.53;;;0.98;;
63370;SDS011;49504;48.336;14.472;2023-02-22T11:54:54;2.22;;;0.82;;
63370;SDS011;49504;48.336;14.472;2023-02-22T11:58:37;2.90;;;1.00;;
63370;SDS011;49504;48.336;14.472;2023-02-22T12:02:12;2.70;;;0.90;;
63370;SDS011;49504;48.336;14.472;2023-02-22T12:05:59;3.78;;;1.20;;
63370;SDS011;49504;48.336;14.472;2023-02-22T12:09:33;2.72;;;0.80;;
63370;SDS011;49504;48.336;14.472;2023-02-22T12:13:04;2.22;;;0.85;;
63370;SDS011;49504;48.336;14.472;2023-02-22T12:16:47;2.35;;;0.70;;
63370;SDS011;49504;48.336;14.472;2023-02-22T12:20:27;2.63;;;0.75;;
63370;SDS011;49504;48.336;14.472;2023-02-22T12:23:53;2.72;;;0.80;;
63370;SDS011;49504;48.336;14.472;2023-02-22T12:27:22;2.60;;;1.00;;
63370;SDS011;49504;48.336;14.472;2023-02-22T12:30:50;2.45;;;1.05;;
63370;SDS011;49504;48.336;14.472;2023-02-22T12:34:24;2.78;;;0.70;;
63370;SDS011;49504;48.336;14.472;2023-02-22T12:37:55;2.42;;;0.80;;
63370;SDS011;49504;48.336;14.472;2023-02-22T12:41:24;2.53;;;0.80;;
63370;SDS011;49504;48.336;14.472;2023-02-22T12:47:41;2.72;;;1.00;;
63370;SDS011;49504;48.336;14.472;2023-02-22T12:51:18;2.55;;;1.02;;
63370;SDS011;49504;48.336;14.472;2023-02-22T12:54:47;2.58;;;0.90;;
63370;SDS011;49504;48.336;14.472;2023-02-22T12:58:17;2.50;;;0.90;;
63370;SDS011;49504;48.336;14.472;2023-02-22T13:01:43;1.92;;;0.60;;
63370;SDS011;49504;48.336;14.472;2023-02-22T13:05:14;2.88;;;1.10;;
63370;SDS011;49504;48.336;14.472;2023-02-22T13:08:38;3.33;;;1.00;;
63370;SDS011;49504;48.336;14.472;2023-02-22T13:12:11;2.40;;;1.00;;
63370;SDS011;49504;48.336;14.472;2023-02-22T13:15:40;2.00;;;0.70;;
63370;SDS011;49504;48.336;14.472;2023-02-22T13:19:11;2.58;;;0.82;;
63370;SDS011;49504;48.336;14.472;2023-02-22T13:22:48;2.25;;;0.90;;
63370;SDS011;49504;48.336;14.472;2023-02-22T13:26:18;2.58;;;0.80;;
63370;SDS011;49504;48.336;14.472;2023-02-22T13:29:45;2.90;;;0.90;;
63370;SDS011;49504;48.336;14.472;2023-02-22T13:34:48;2.55;;;0.73;;
63370;SDS011;49504;48.336;14.472;2023-02-22T13:38:39;2.65;;;0.80;;
63370;SDS011;49504;48.336;14.472;2023-02-22T13:43:00;2.90;;;0.85;;
63370;SDS011;49504;48.336;14.472;2023-02-22T13:47:06;2.35;;;0.75;;
63370;SDS011;49504;48.336;14.472;2023-02-22T13:54:32;2.33;;;0.80;;
63370;SDS011;49504;48.336;14.472;2023-02-22T13:57:59;3.17;;;1.05;;
63370;SDS011;49504;48.336;14.472;2023-02-22T14:01:39;2.35;;;0.80;;
63370;SDS011;49504;48.336;14.472;2023-02-22T14:09:39;2.58;;;0.88;;
63370;SDS011;49504;48.336;14.472;2023-02-22T14:13:07;2.78;;;0.65;;
63370;SDS011;49504;48.336;14.472;2023-02-22T14:16:29;3.33;;;0.98;;
63370;SDS011;49504;48.336;14.472;2023-02-22T14:23:45;3.40;;;1.02;;
63370;SDS011;49504;48.336;14.472;2023-02-22T14:27:10;2.13;;;0.50;;
63370;SDS011;49504;48.336;14.472;2023-02-22T14:30:33;2.40;;;0.83;;
63370;SDS011;49504;48.336;14.472;2023-02-22T14:34:00;4.45;;;1.00;;
63370;SDS011;49504;48.336;14.472;2023-02-22T14:37:29;1.80;;;0.57;;
63370;SDS011;49504;48.336;14.472;2023-02-22T14:40:55;1.90;;;0.80;;
63370;SDS011;49504;48.336;14.472;2023-02-22T14:44:21;2.30;;;0.68;;
63370;SDS011;49504;48.336;14.472;2023-02-22T14:47:49;2.38;;;0.65;;
63370;SDS011;49504;48.336;14.472;2023-02-22T14:51:18;3.78;;;1.20;;
63370;SDS011;49504;48.336;14.472;2023-02-22T14:54:48;3.50;;;0.90;;
63370;SDS011;49504;48.336;14.472;2023-02-22T14:58:35;2.17;;;0.60;;
63370;SDS011;49504;48.336;14.472;2023-02-22T15:02:05;2.35;;;0.80;;
63370;SDS011;49504;48.336;14.472;2023-02-22T15:05:36;2.22;;;0.70;;
63370;SDS011;49504;48.336;14.472;2023-02-22T15:09:04;3.00;;;0.90;;
63370;SDS011;49504;48.336;14.472;2023-02-22T15:12:27;3.08;;;0.93;;
63370;SDS011;49504;48.336;14.472;2023-02-22T15:15:53;2.53;;;0.80;;
63370;SDS011;49504;48.336;14.472;2023-02-22T15:19:19;3.33;;;1.13;;
63370;SDS011;49504;48.336;14.472;2023-02-22T15:22:44;7.70;;;1.63;;
63370;SDS011;49504;48.336;14.472;2023-02-22T15:26:08;4.07;;;1.67;;
63370;SDS011;49504;48.336;14.472;2023-02-22T15:29:43;3.95;;;1.00;;
63370;SDS011;49504;48.336;14.472;2023-02-22T15:33:15;3.30;;;1.10;;
63370;SDS011;49504;48.336;14.472;2023-02-22T15:36:43;5.10;;;1.35;;
63370;SDS011;49504;48.336;14.472;2023-02-22T15:40:13;3.70;;;1.30;;
63370;SDS011;49504;48.336;14.472;2023-02-22T15:43:38;3.53;;;1.17;;
63370;SDS011;49504;48.336;14.472;2023-02-22T15:47:03;2.65;;;0.90;;
63370;SDS011;49504;48.336;14.472;2023-02-22T15:50:33;3.80;;;1.15;;
63370;SDS011;49504;48.336;14.472;2023-02-22T15:54:04;3.72;;;1.10;;
63370;SDS011;49504;48.336;14.472;2023-02-22T15:57:28;3.55;;;1.02;;
63370;SDS011;49504;48.336;14.472;2023-02-22T16:02:58;4.05;;;1.38;;
63370;SDS011;49504;48.336;14.472;2023-02-22T16:06:25;3.28;;;1.00;;
63370;SDS011;49504;48.336;14.472;2023-02-22T16:09:51;5.28;;;1.70;;
63370;SDS011;49504;48.336;14.472;2023-02-22T16:13:18;3.53;;;1.00;;
63370;SDS011;49504;48.336;14.472;2023-02-22T16:22:22;3.20;;;0.70;;
63370;SDS011;49504;48.336;14.472;2023-02-22T16:26:21;3.30;;;1.10;;
63370;SDS011;49504;48.336;14.472;2023-02-22T16:30:04;3.65;;;1.08;;
63370;SDS011;49504;48.336;14.472;2023-02-22T16:33:43;2.60;;;0.82;;
63370;SDS011;49504;48.336;14.472;2023-02-22T16:37:18;2.47;;;0.80;;
63370;SDS011;49504;48.336;14.472;2023-02-22T16:40:51;2.28;;;0.73;;
63370;SDS011;49504;48.336;14.472;2023-02-22T16:44:26;2.80;;;0.82;;
63370;SDS011;49504;48.336;14.472;2023-02-22T16:47:48;3.40;;;1.10;;
63370;SDS011;49504;48.336;14.472;2023-02-22T16:51:16;3.15;;;0.80;;
63370;SDS011;49504;48.336;14.472;2023-02-22T16:54:46;1.80;;;0.70;;
63370;SDS011;49504;48.336;14.472;2023-02-22T16:58:18;2.50;;;0.90;;
63370;SDS011;49504;48.336;14.472;2023-02-22T17:01:41;2.55;;;0.73;;
63370;SDS011;49504;48.336;14.472;2023-02-22T17:05:08;2.45;;;0.82;;
63370;SDS011;49504;48.336;14.472;2023-02-22T19:04:39;59.67;;;25.05;;
63370;SDS011;49504;48.336;14.472;2023-02-22T19:08:00;62.60;;;24.30;;
63370;SDS011;49504;48.336;14.472;2023-02-22T19:11:23;63.05;;;25.55;;
63370;SDS011;49504;48.336;14.472;2023-02-22T19:14:44;63.03;;;26.45;;
63370;SDS011;49504;48.336;14.472;2023-02-22T19:18:06;52.30;;;22.55;;
63370;SDS011;49504;48.336;14.472;2023-02-22T19:21:30;51.20;;;21.30;;
63370;SDS011;49504;48.336;14.472;2023-02-22T19:24:55;46.60;;;21.10;;
63370;SDS011;49504;48.336;14.472;2023-02-22T19:28:16;42.53;;;18.35;;
63370;SDS011;49504;48.336;14.472;2023-02-22T19:31:38;45.78;;;18.63;;
63370;SDS011;49504;48.336;14.472;2023-02-22T19:34:59;48.55;;;19.20;;
63370;SDS011;49504;48.336;14.472;2023-02-22T19:38:22;40.97;;;18.70;;
63370;SDS011;49504;48.336;14.472;2023-02-22T19:41:46;42.60;;;18.67;;
63370;SDS011;49504;48.336;14.472;2023-02-22T19:45:07;39.85;;;17.42;;
63370;SDS011;49504;48.336;14.472;2023-02-22T19:48:28;38.70;;;17.77;;
63370;SDS011;49504;48.336;14.472;2023-02-22T19:51:50;40.72;;;17.98;;
63370;SDS011;49504;48.336;14.472;2023-02-22T19:55:12;43.17;;;18.70;;
63370;SDS011;49504;48.336;14.472;2023-02-22T19:58:37;36.88;;;15.65;;
63370;SDS011;49504;48.336;14.472;2023-02-22T20:02:03;38.83;;;16.63;;
63370;SDS011;49504;48.336;14.472;2023-02-22T20:05:24;35.17;;;16.40;;
63370;SDS011;49504;48.336;14.472;2023-02-22T20:10:37;32.70;;;15.13;;
63370;SDS011;49504;48.336;14.472;2023-02-22T20:13:58;32.63;;;14.70;;
63370;SDS011;49504;48.336;14.472;2023-02-22T20:17:20;32.08;;;14.38;;
63370;SDS011;49504;48.336;14.472;2023-02-22T20:20:41;33.70;;;14.88;;
63370;SDS011;49504;48.336;14.472;2023-02-22T20:24:03;30.02;;;13.38;;
63370;SDS011;49504;48.336;14.472;2023-02-22T20:27:28;28.23;;;13.23;;
63370;SDS011;49504;48.336;14.472;2023-02-22T20:30:49;30.67;;;13.45;;
63370;SDS011;49504;48.336;14.472;2023-02-22T20:34:10;29.63;;;13.27;;
63370;SDS011;49504;48.336;14.472;2023-02-22T20:37:32;24.65;;;11.52;;
63370;SDS011;49504;48.336;14.472;2023-02-22T20:40:53;28.10;;;12.13;;
63370;SDS011;49504;48.336;14.472;2023-02-22T20:44:16;28.77;;;11.02;;
63370;SDS011;49504;48.336;14.472;2023-02-22T20:47:38;27.30;;;12.43;;
63370;SDS011;49504;48.336;14.472;2023-02-22T20:51:03;23.25;;;10.95;;
63370;SDS011;49504;48.336;14.472;2023-02-22T20:54:25;27.30;;;11.68;;
63370;SDS011;49504;48.336;14.472;2023-02-22T20:57:46;22.98;;;11.65;;
63370;SDS011;49504;48.336;14.472;2023-02-22T21:01:10;24.25;;;10.82;;
63370;SDS011;49504;48.336;14.472;2023-02-22T21:04:33;27.40;;;11.82;;
63370;SDS011;49504;48.336;14.472;2023-02-22T21:10:35;25.15;;;10.35;;
63370;SDS011;49504;48.336;14.472;2023-02-22T21:14:00;23.63;;;10.43;;
63370;SDS011;49504;48.336;14.472;2023-02-22T21:17:22;22.02;;;10.18;;
63370;SDS011;49504;48.336;14.472;2023-02-22T21:20:43;24.55;;;11.38;;
63370;SDS011;49504;48.336;14.472;2023-02-22T21:26:24;22.25;;;9.52;;
63370;SDS011;49504;48.336;14.472;2023-02-22T21:33:42;20.45;;;9.52;;
63370;SDS011;49504;48.336;14.472;2023-02-22T21:37:03;21.23;;;8.98;;
63370;SDS011;49504;48.336;14.472;2023-02-22T21:40:24;21.33;;;9.30;;
63370;SDS011;49504;48.336;14.472;2023-02-22T21:43:47;20.45;;;9.85;;
63370;SDS011;49504;48.336;14.472;2023-02-22T21:47:10;20.15;;;9.55;;
63370;SDS011;49504;48.336;14.472;2023-02-22T21:50:32;18.15;;;8.70;;
63370;SDS011;49504;48.336;14.472;2023-02-22T21:53:53;18.40;;;8.85;;
63370;SDS011;49504;48.336;14.472;2023-02-22T21:57:14;19.17;;;8.88;;
63370;SDS011;49504;48.336;14.472;2023-02-22T22:00:35;20.05;;;9.07;;
63370;SDS011;49504;48.336;14.472;2023-02-22T22:03:57;18.52;;;9.32;;
63370;SDS011;49504;48.336;14.472;2023-02-22T22:07:20;19.30;;;8.52;;
63370;SDS011;49504;48.336;14.472;2023-02-22T22:12:51;17.42;;;8.23;;
63370;SDS011;49504;48.336;14.472;2023-02-22T22:16:13;15.40;;;7.47;;
63370;SDS011;49504;48.336;14.472;2023-02-22T22:19:36;14.18;;;7.32;;
63370;SDS011;49504;48.336;14.472;2023-02-22T22:22:58;14.40;;;7.18;;
63370;SDS011;49504;48.336;14.472;2023-02-22T22:26:19;16.02;;;7.30;;
63370;SDS011;49504;48.336;14.472;2023-02-22T22:29:42;15.43;;;6.75;;
63370;SDS011;49504;48.336;14.472;2023-02-22T22:33:04;12.60;;;6.47;;
63370;SDS011;49504;48.336;14.472;2023-02-22T22:36:26;15.07;;;6.55;;
63370;SDS011;49504;48.336;14.472;2023-02-22T22:39:47;12.95;;;6.43;;
63370;SDS011;49504;48.336;14.472;2023-02-22T22:43:08;13.68;;;6.72;;
63370;SDS011;49504;48.336;14.472;2023-02-22T22:46:30;12.85;;;6.20;;
63370;SDS011;49504;48.336;14.472;2023-02-22T22:49:52;14.30;;;6.53;;
63370;SDS011;49504;48.336;14.472;2023-02-22T22:53:13;12.48;;;5.82;;
63370;SDS011;49504;48.336;14.472;2023-02-22T22:56:35;15.75;;;6.55;;
63370;SDS011;49504;48.336;14.472;2023-02-22T22:59:56;12.93;;;6.47;;
63370;SDS011;49504;48.336;14.472;2023-02-22T23:03:19;10.98;;;5.75;;
63370;SDS011;49504;48.336;14.472;2023-02-22T23:06:41;12.00;;;5.32;;
63370;SDS011;49504;48.336;14.472;2023-02-22T23:10:04;11.15;;;5.85;;
63370;SDS011;49504;48.336;14.472;2023-02-22T23:13:26;12.98;;;6.03;;
63370;SDS011;49504;48.336;14.472;2023-02-22T23:16:47;12.93;;;5.63;;
63370;SDS011;49504;48.336;14.472;2023-02-22T23:20:12;10.57;;;5.63;;
63370;SDS011;49504;48.336;14.472;2023-02-22T23:23:34;11.38;;;5.90;;
63370;SDS011;49504;48.336;14.472;2023-02-22T23:26:55;13.27;;;5.22;;
63370;SDS011;49504;48.336;14.472;2023-02-22T23:30:16;10.38;;;5.20;;
63370;SDS011;49504;48.336;14.472;2023-02-22T23:33:38;11.07;;;5.07;;
63370;SDS011;49504;48.336;14.472;2023-02-22T23:37:01;11.73;;;5.60;;
63370;SDS011;49504;48.336;14.472;2023-02-22T23:40:22;10.73;;;4.97;;
63370;SDS011;49504;48.336;14.472;2023-02-22T23:43:44;9.95;;;5.38;;
63370;SDS011;49504;48.336;14.472;2023-02-22T23:47:05;10.60;;;5.22;;
63370;SDS011;49504;48.336;14.472;2023-02-22T23:50:26;10.15;;;4.80;;
63370;SDS011;49504;48.336;14.472;2023-02-22T23:53:51;10.68;;;5.15;;
63370;SDS011;49504;48.336;14.472;2023-02-22T23:57:13;11.30;;;4.82;;
